createdAt,value
2022-10-15T00:00:13.596Z,3.50
2022-10-15T00:02:40.215Z,2.33
2022-10-15T00:05:07.070Z,3.28
2022-10-15T00:07:33.628Z,4.28
2022-10-15T00:10:00.127Z,6.50
2022-10-15T00:12:26.678Z,4.90
2022-10-15T00:14:53.831Z,4.32
2022-10-15T00:17:20.435Z,7.13
2022-10-15T00:19:47.246Z,4.53
2022-10-15T00:22:13.842Z,3.97
2022-10-15T00:24:40.801Z,3.63
2022-10-15T00:27:07.382Z,5.20
2022-10-15T00:29:34.034Z,6.72
2022-10-15T00:32:00.589Z,3.80
2022-10-15T00:34:27.409Z,5.82
2022-10-15T00:36:54.028Z,2.53
2022-10-15T00:39:20.731Z,5.60
2022-10-15T00:41:47.582Z,4.25
2022-10-15T00:44:29.085Z,5.43
2022-10-15T00:47:14.960Z,4.35
2022-10-15T00:49:46.615Z,3.53
2022-10-15T00:52:25.927Z,2.30
2022-10-15T00:55:21.549Z,2.70
2022-10-15T00:57:50.081Z,2.78
2022-10-15T01:00:17.706Z,3.15
2022-10-15T01:02:45.202Z,2.85
2022-10-15T01:05:13.675Z,3.45
2022-10-15T01:07:40.229Z,5.53
2022-10-15T01:10:08.686Z,2.60
2022-10-15T01:13:12.491Z,2.67
2022-10-15T01:15:57.232Z,1.90
2022-10-15T01:18:42.113Z,2.00
2022-10-15T01:21:25.259Z,3.97
2022-10-15T01:24:25.233Z,3.55
2022-10-15T01:27:27.491Z,1.50
2022-10-15T01:30:23.698Z,2.00
2022-10-15T01:33:08.453Z,3.10
2022-10-15T01:35:49.084Z,1.90
2022-10-15T01:38:51.187Z,2.72
2022-10-15T01:41:39.502Z,2.63
2022-10-15T01:44:31.305Z,3.25
2022-10-15T01:47:03.803Z,3.20
2022-10-15T01:49:37.157Z,2.97
2022-10-15T01:52:14.336Z,2.17
2022-10-15T01:54:41.317Z,3.53
2022-10-15T01:57:09.598Z,2.67
2022-10-15T01:59:36.141Z,3.80
2022-10-15T02:02:02.813Z,2.72
2022-10-15T02:04:31.254Z,2.50
2022-10-15T02:07:11.748Z,4.97
2022-10-15T02:09:59.359Z,4.63
2022-10-15T02:12:41.905Z,2.55
2022-10-15T02:15:47.098Z,3.33
2022-10-15T02:18:47.149Z,3.17
2022-10-15T02:21:22.505Z,3.33
2022-10-15T02:23:54.203Z,2.70
2022-10-15T02:26:22.605Z,2.70
2022-10-15T02:28:55.668Z,3.30
2022-10-15T02:31:23.848Z,2.90
2022-10-15T02:33:53.775Z,2.97
2022-10-15T02:36:20.894Z,3.88
2022-10-15T02:38:48.917Z,4.70
2022-10-15T02:41:15.933Z,2.33
2022-10-15T02:43:42.495Z,4.10
2022-10-15T02:46:12.515Z,2.80
2022-10-15T02:48:39.088Z,4.30
2022-10-15T02:51:05.814Z,3.20
2022-10-15T02:53:32.518Z,5.43
2022-10-15T02:55:59.066Z,3.55
2022-10-15T02:58:25.967Z,6.15
2022-10-15T03:00:52.602Z,5.22
2022-10-15T03:03:19.119Z,5.80
2022-10-15T03:05:45.910Z,2.70
2022-10-15T03:08:12.482Z,3.83
2022-10-15T03:10:39.087Z,4.40
2022-10-15T03:13:06.505Z,4.57
2022-10-15T03:15:33.371Z,2.97
2022-10-15T03:17:59.920Z,7.10
2022-10-15T03:20:26.752Z,4.88
2022-10-15T03:22:53.816Z,7.47
2022-10-15T03:25:20.318Z,3.47
2022-10-15T03:27:47.622Z,4.82
2022-10-15T03:30:14.337Z,8.85
2022-10-15T03:32:40.903Z,3.50
2022-10-15T03:35:07.950Z,3.97
2022-10-15T03:37:34.586Z,4.05
2022-10-15T03:40:01.368Z,3.92
2022-10-15T03:42:27.917Z,7.78
2022-10-15T03:44:54.450Z,6.57
2022-10-15T03:47:21.033Z,4.40
2022-10-15T03:49:47.737Z,4.10
2022-10-15T03:52:14.278Z,7.65
2022-10-15T03:54:40.782Z,5.45
2022-10-15T03:57:07.269Z,4.82
2022-10-15T03:59:33.907Z,6.35
2022-10-15T04:02:00.483Z,6.60
2022-10-15T04:04:27.125Z,6.30
2022-10-15T04:06:53.605Z,6.97
2022-10-15T04:09:20.245Z,8.63
2022-10-15T04:11:46.829Z,7.03
2022-10-15T04:14:13.339Z,5.35
2022-10-15T04:16:39.842Z,5.32
2022-10-15T04:19:08.790Z,7.55
2022-10-15T04:21:37.731Z,5.30
2022-10-15T04:24:04.380Z,5.60
2022-10-15T04:26:30.958Z,6.03
2022-10-15T04:28:57.622Z,8.88
2022-10-15T04:31:24.781Z,8.55
2022-10-15T04:33:51.314Z,8.43
2022-10-15T04:38:49.328Z,7.60
2022-10-15T04:41:16.244Z,7.72
2022-10-15T04:43:42.854Z,8.95
2022-10-15T04:46:09.726Z,9.75
2022-10-15T04:48:42.164Z,10.50
2022-10-15T04:51:16.893Z,16.52
2022-10-15T04:53:43.771Z,17.42
2022-10-15T04:56:15.775Z,17.08
2022-10-15T04:58:43.794Z,18.45
2022-10-15T05:01:13.240Z,17.92
2022-10-15T05:03:44.848Z,18.30
2022-10-15T05:06:15.548Z,14.15
2022-10-15T05:08:42.225Z,21.20
2022-10-15T05:11:29.127Z,16.38
2022-10-15T05:13:57.521Z,12.93
2022-10-15T05:16:29.284Z,12.38
2022-10-15T05:19:03.669Z,17.33
2022-10-15T05:21:33.658Z,14.37
2022-10-15T05:24:00.873Z,16.10
2022-10-15T05:26:29.398Z,15.98
2022-10-15T05:28:58.061Z,15.77
2022-10-15T05:31:28.116Z,17.83
2022-10-15T05:33:54.789Z,11.45
2022-10-15T05:36:24.216Z,15.75
2022-10-15T05:38:53.670Z,12.07
2022-10-15T05:41:20.884Z,13.70
2022-10-15T05:43:53.720Z,12.73
2022-10-15T05:46:21.074Z,11.88
2022-10-15T05:48:52.866Z,13.45
2022-10-15T05:51:20.056Z,12.32
2022-10-15T05:53:46.688Z,13.73
2022-10-15T05:56:15.122Z,11.68
2022-10-15T05:58:41.978Z,9.60
2022-10-15T06:01:11.159Z,8.77
2022-10-15T06:03:39.224Z,10.25
2022-10-15T06:06:12.824Z,10.30
2022-10-15T06:08:39.434Z,10.07
2022-10-15T06:11:08.581Z,12.32
2022-10-15T06:13:41.087Z,11.35
2022-10-15T06:16:08.340Z,8.18
2022-10-15T06:18:35.878Z,10.98
2022-10-15T06:21:02.959Z,11.30
2022-10-15T06:23:29.613Z,11.02
2022-10-15T06:25:56.718Z,8.95
2022-10-15T06:28:23.412Z,11.27
2022-10-15T06:30:50.103Z,10.70
2022-10-15T06:33:16.952Z,10.70
2022-10-15T06:35:43.509Z,10.07
2022-10-15T06:38:10.199Z,10.68
2022-10-15T06:40:37.941Z,10.32
2022-10-15T06:43:10.169Z,10.27
2022-10-15T06:45:38.650Z,9.85
2022-10-15T06:48:06.298Z,9.88
2022-10-15T06:50:33.917Z,7.25
2022-10-15T06:53:00.657Z,9.02
2022-10-15T06:55:28.846Z,7.35
2022-10-15T06:57:56.371Z,6.65
2022-10-15T07:00:24.486Z,6.57
2022-10-15T07:02:52.145Z,8.15
2022-10-15T07:05:19.022Z,6.57
2022-10-15T07:07:53.326Z,6.97
2022-10-15T07:12:47.678Z,6.53
2022-10-15T07:15:14.509Z,5.18
2022-10-15T07:17:47.486Z,6.45
2022-10-15T07:20:14.667Z,6.00
2022-10-15T07:22:41.586Z,5.63
2022-10-15T07:25:09.968Z,7.25
2022-10-15T07:27:39.937Z,6.13
2022-10-15T07:30:07.866Z,7.13
2022-10-15T07:32:35.327Z,8.20
2022-10-15T07:35:01.888Z,6.30
2022-10-15T07:37:28.508Z,7.45
2022-10-15T07:39:55.472Z,6.63
2022-10-15T07:42:22.071Z,5.75
2022-10-15T07:44:48.681Z,7.53
2022-10-15T07:47:15.221Z,8.43
2022-10-15T07:49:41.830Z,7.57
2022-10-15T07:52:08.621Z,6.30
2022-10-15T07:54:35.758Z,7.45
2022-10-15T07:57:02.396Z,5.60
2022-10-15T07:59:28.993Z,4.68
2022-10-15T08:01:55.684Z,7.85
2022-10-15T08:04:22.242Z,4.80
2022-10-15T08:06:49.685Z,5.97
2022-10-15T08:09:17.066Z,4.50
2022-10-15T08:11:44.610Z,4.43
2022-10-15T08:14:11.335Z,5.50
2022-10-15T08:16:37.916Z,5.20
2022-10-15T08:19:04.493Z,4.80
2022-10-15T08:21:31.086Z,4.93
2022-10-15T08:23:57.611Z,4.40
2022-10-15T08:26:26.429Z,4.15
2022-10-15T08:28:53.126Z,4.55
2022-10-15T08:31:19.814Z,5.70
2022-10-15T08:33:46.420Z,4.28
2022-10-15T08:36:13.074Z,6.13
2022-10-15T08:38:39.704Z,3.70
2022-10-15T08:41:21.705Z,4.72
2022-10-15T08:43:48.898Z,4.07
2022-10-15T08:46:25.214Z,3.53
2022-10-15T08:48:58.941Z,3.30
2022-10-15T08:51:28.249Z,2.80
2022-10-15T08:54:01.707Z,2.78
2022-10-15T08:56:33.033Z,3.42
2022-10-15T08:59:20.805Z,4.03
2022-10-15T09:02:02.631Z,3.10
2022-10-15T09:04:47.298Z,4.10
2022-10-15T09:07:30.090Z,3.73
2022-10-15T09:10:17.255Z,6.25
2022-10-15T09:12:58.313Z,3.40
2022-10-15T09:15:27.848Z,2.78
2022-10-15T09:17:55.478Z,4.28
2022-10-15T09:20:33.915Z,3.80
2022-10-15T09:23:00.677Z,3.45
2022-10-15T09:25:38.205Z,3.78
2022-10-15T09:28:14.382Z,2.35
2022-10-15T09:30:54.943Z,3.22
2022-10-15T09:33:34.263Z,2.55
2022-10-15T09:36:28.058Z,7.05
2022-10-15T09:39:18.610Z,2.60
2022-10-15T09:42:02.178Z,3.13
2022-10-15T09:44:40.174Z,3.50
2022-10-15T09:47:22.551Z,2.35
2022-10-15T09:49:49.104Z,3.05
2022-10-15T09:52:39.550Z,3.15
2022-10-15T09:55:29.427Z,2.83
2022-10-15T09:58:01.657Z,1.80
2022-10-15T10:00:50.858Z,2.10
2022-10-15T10:03:17.822Z,3.22
2022-10-15T10:05:45.763Z,1.90
2022-10-15T10:08:24.858Z,2.83
2022-10-15T10:11:03.179Z,1.80
2022-10-15T10:13:44.497Z,2.33
2022-10-15T10:16:12.622Z,2.10
2022-10-15T10:18:39.792Z,1.70
2022-10-15T10:21:22.012Z,2.17
2022-10-15T10:23:48.612Z,2.15
2022-10-15T10:26:15.331Z,2.47
2022-10-15T10:29:09.973Z,5.03
2022-10-15T10:31:44.771Z,2.28
2022-10-15T10:34:16.925Z,2.38
2022-10-15T10:36:49.350Z,1.73
2022-10-15T10:39:37.743Z,1.90
2022-10-15T10:42:07.380Z,2.22
2022-10-15T10:44:42.173Z,2.03
2022-10-15T10:47:08.738Z,3.22
2022-10-15T10:49:40.829Z,3.03
2022-10-15T10:52:40.875Z,3.85
2022-10-15T10:55:24.291Z,2.70
2022-10-15T10:58:01.356Z,1.20
2022-10-15T11:00:39.754Z,2.28
2022-10-15T11:03:15.935Z,2.10
2022-10-15T11:05:43.344Z,1.08
2022-10-15T11:08:49.722Z,2.47
2022-10-15T11:11:31.723Z,1.48
2022-10-15T11:14:20.095Z,1.60
2022-10-15T11:17:04.462Z,2.97
2022-10-15T11:20:12.963Z,2.35
2022-10-15T11:22:39.432Z,0.80
2022-10-15T11:25:22.977Z,2.88
2022-10-15T11:28:23.869Z,3.17
2022-10-15T11:31:09.289Z,4.72
2022-10-15T11:34:17.694Z,1.80
2022-10-15T11:36:51.133Z,4.90
2022-10-15T11:39:30.488Z,4.30
2022-10-15T11:42:18.631Z,2.47
2022-10-15T11:45:24.889Z,1.42
2022-10-15T11:48:02.144Z,1.92
2022-10-15T11:50:53.433Z,1.88
2022-10-15T11:53:52.057Z,2.83
2022-10-15T11:56:39.539Z,1.60
2022-10-15T11:59:27.979Z,1.55
2022-10-15T12:02:02.234Z,2.22
2022-10-15T12:04:47.232Z,5.23
2022-10-15T12:07:23.768Z,5.35
2022-10-15T12:10:00.139Z,2.30
2022-10-15T12:13:05.301Z,1.27
2022-10-15T12:15:50.922Z,1.52
2022-10-15T12:18:42.134Z,2.85
2022-10-15T12:21:43.218Z,3.10
2022-10-15T12:24:37.735Z,1.65
2022-10-15T12:27:34.728Z,5.00
2022-10-15T12:30:13.816Z,1.35
2022-10-15T12:32:48.497Z,1.95
2022-10-15T12:35:15.040Z,3.60
2022-10-15T12:37:44.620Z,2.22
2022-10-15T12:40:26.401Z,2.45
2022-10-15T12:42:57.351Z,1.98
2022-10-15T12:45:40.156Z,1.85
2022-10-15T12:48:16.374Z,2.17
2022-10-15T12:50:43.091Z,1.83
2022-10-15T12:53:28.599Z,4.95
2022-10-15T12:56:10.862Z,2.38
2022-10-15T12:58:38.801Z,5.65
2022-10-15T13:01:14.457Z,2.45
2022-10-15T13:03:52.856Z,3.92
2022-10-15T13:06:22.555Z,2.33
2022-10-15T13:08:49.058Z,5.53
2022-10-15T13:11:25.267Z,2.83
2022-10-15T13:14:03.862Z,2.72
2022-10-15T13:16:31.220Z,4.32
2022-10-15T13:18:58.938Z,3.83
2022-10-15T13:21:50.442Z,2.80
2022-10-15T13:24:23.182Z,5.10
2022-10-15T13:26:50.269Z,2.88
2022-10-15T13:29:19.294Z,2.20
2022-10-15T13:31:48.019Z,3.25
2022-10-15T13:34:30.442Z,3.47
2022-10-15T13:37:00.778Z,8.88
2022-10-15T13:39:30.900Z,2.42
2022-10-15T13:42:20.121Z,4.57
2022-10-15T13:45:19.301Z,3.28
2022-10-15T13:47:51.636Z,6.28
2022-10-15T13:50:26.848Z,2.05
2022-10-15T13:55:37.242Z,5.50
2022-10-15T13:58:14.734Z,7.50
2022-10-15T14:00:41.908Z,6.18
2022-10-15T14:03:16.550Z,2.78
2022-10-15T14:05:45.771Z,3.42
2022-10-15T14:08:24.274Z,4.40
2022-10-15T14:10:53.489Z,2.40
2022-10-15T14:13:20.089Z,3.42
2022-10-15T14:15:55.981Z,3.53
2022-10-15T14:18:35.720Z,1.42
2022-10-15T14:21:02.873Z,1.00
2022-10-15T14:23:29.690Z,1.10
2022-10-15T14:26:02.128Z,4.88
2022-10-15T14:28:32.293Z,2.15
2022-10-15T14:31:00.086Z,4.22
2022-10-15T14:33:44.784Z,5.05
2022-10-15T14:36:27.465Z,2.70
2022-10-15T14:38:55.360Z,2.35
2022-10-15T14:41:25.749Z,3.38
2022-10-15T14:44:06.621Z,3.58
2022-10-15T14:46:45.566Z,2.35
2022-10-15T14:49:26.006Z,5.32
2022-10-15T14:52:03.507Z,4.10
2022-10-15T14:54:38.084Z,4.07
2022-10-15T14:57:05.184Z,6.75
2022-10-15T14:59:36.457Z,2.95
2022-10-15T15:02:05.046Z,2.75
2022-10-15T15:04:41.040Z,2.55
2022-10-15T15:07:13.657Z,3.05
2022-10-15T15:09:41.751Z,3.80
2022-10-15T15:12:27.825Z,2.70
2022-10-15T15:14:54.939Z,1.70
2022-10-15T15:17:27.401Z,4.65
2022-10-15T15:19:55.992Z,3.25
2022-10-15T15:22:33.617Z,3.47
2022-10-15T15:25:03.967Z,2.33
2022-10-15T15:27:36.969Z,1.35
2022-10-15T15:30:13.341Z,2.53
2022-10-15T15:32:39.869Z,4.75
2022-10-15T15:35:26.234Z,2.53
2022-10-15T15:37:53.249Z,1.95
2022-10-15T15:40:20.447Z,1.80
2022-10-15T15:42:47.157Z,1.55
2022-10-15T15:45:20.422Z,4.13
2022-10-15T15:47:47.209Z,2.42
2022-10-15T15:50:14.589Z,5.60
2022-10-15T15:52:43.566Z,2.80
2022-10-15T15:55:11.641Z,2.35
2022-10-15T15:57:38.436Z,2.97
2022-10-15T16:00:07.161Z,2.70
2022-10-15T16:02:33.951Z,5.28
2022-10-15T16:05:01.763Z,2.50
2022-10-15T16:07:28.957Z,9.40
2022-10-15T16:09:55.612Z,2.17
2022-10-15T16:12:22.655Z,3.72
2022-10-15T16:14:49.201Z,6.28
2022-10-15T16:17:15.854Z,3.47
2022-10-15T16:19:42.360Z,1.92
2022-10-15T16:22:09.073Z,4.55
2022-10-15T16:24:36.073Z,3.20
2022-10-15T16:27:02.630Z,4.32
2022-10-15T16:29:29.210Z,3.13
2022-10-15T16:31:55.847Z,4.70
2022-10-15T16:34:22.425Z,4.45
2022-10-15T16:36:49.097Z,3.15
2022-10-15T16:39:15.610Z,4.72
2022-10-15T16:41:42.214Z,5.18
2022-10-15T16:44:08.777Z,3.28
2022-10-15T16:46:35.581Z,6.65
2022-10-15T16:49:02.133Z,5.18
2022-10-15T16:51:28.790Z,5.72
2022-10-15T16:53:55.416Z,2.40
2022-10-15T16:56:27.949Z,3.65
2022-10-15T16:58:56.005Z,4.65
2022-10-15T17:01:25.160Z,4.45
2022-10-15T17:03:52.410Z,6.38
2022-10-15T17:06:25.484Z,3.95
2022-10-15T17:08:54.749Z,3.22
2022-10-15T17:11:24.387Z,3.92
2022-10-15T17:13:52.624Z,4.60
2022-10-15T17:16:22.460Z,5.82
2022-10-15T17:21:19.643Z,2.92
2022-10-15T17:23:48.326Z,6.05
2022-10-15T17:26:18.237Z,2.95
2022-10-15T17:28:45.886Z,3.75
2022-10-15T17:31:15.599Z,4.97
2022-10-15T17:33:43.237Z,3.55
2022-10-15T17:36:12.480Z,2.42
2022-10-15T17:38:39.525Z,2.17
2022-10-15T17:41:08.845Z,4.72
2022-10-15T17:43:39.278Z,1.40
2022-10-15T17:46:13.864Z,3.35
2022-10-15T17:48:43.650Z,1.95
2022-10-15T17:51:14.207Z,3.22
2022-10-15T17:53:42.018Z,3.33
2022-10-15T17:56:21.924Z,5.07
2022-10-15T17:58:49.877Z,2.92
2022-10-15T18:01:33.459Z,3.08
2022-10-15T18:04:06.842Z,3.47
2022-10-15T18:06:33.582Z,1.98
2022-10-15T18:09:00.280Z,3.33
2022-10-15T18:11:32.755Z,1.98
2022-10-15T18:13:59.719Z,4.45
2022-10-15T18:16:26.783Z,3.42
2022-10-15T18:18:54.576Z,1.67
2022-10-15T18:21:23.418Z,2.10
2022-10-15T18:23:50.065Z,2.85
2022-10-15T18:26:20.669Z,2.33
2022-10-15T18:28:51.921Z,3.25
2022-10-15T18:31:18.712Z,4.25
2022-10-15T18:33:48.536Z,2.90
2022-10-15T18:36:18.094Z,2.70
2022-10-15T18:38:44.894Z,2.95
2022-10-15T18:41:24.047Z,2.67
2022-10-15T18:44:04.793Z,7.00
2022-10-15T18:46:32.736Z,6.80
2022-10-15T18:48:59.834Z,7.70
2022-10-15T18:51:27.775Z,5.82
2022-10-15T18:53:54.656Z,5.53
2022-10-15T18:56:22.399Z,4.43
2022-10-15T18:58:49.875Z,2.85
2022-10-15T19:01:37.377Z,3.20
2022-10-15T19:04:06.945Z,3.03
2022-10-15T19:06:42.355Z,8.25
2022-10-15T19:09:12.179Z,4.70
2022-10-15T19:11:40.445Z,4.90
2022-10-15T19:14:07.782Z,4.20
2022-10-15T19:16:35.657Z,4.00
2022-10-15T19:19:03.233Z,5.60
2022-10-15T19:21:30.627Z,2.95
2022-10-15T19:23:57.275Z,2.45
2022-10-15T19:26:24.268Z,5.78
2022-10-15T19:28:51.816Z,3.50
2022-10-15T19:31:26.203Z,3.60
2022-10-15T19:33:54.097Z,4.33
2022-10-15T19:36:29.593Z,4.45
2022-10-15T19:38:56.909Z,2.08
2022-10-15T19:41:23.533Z,2.25
2022-10-15T19:43:50.068Z,2.40
2022-10-15T19:46:16.946Z,1.58
2022-10-15T19:48:43.582Z,2.30
2022-10-15T19:51:10.358Z,5.53
2022-10-15T19:53:37.270Z,3.05
2022-10-15T19:56:07.241Z,3.83
2022-10-15T19:58:34.367Z,4.50
2022-10-15T20:01:02.623Z,5.20
2022-10-15T20:03:30.221Z,2.05
2022-10-15T20:05:57.988Z,4.55
2022-10-15T20:08:25.087Z,2.33
2022-10-15T20:10:52.954Z,2.40
2022-10-15T20:13:22.058Z,2.45
2022-10-15T20:15:51.397Z,5.35
2022-10-15T20:18:19.170Z,4.32
2022-10-15T20:20:46.334Z,2.28
2022-10-15T20:23:17.047Z,1.83
2022-10-15T20:25:44.235Z,3.25
2022-10-15T20:28:11.884Z,3.88
2022-10-15T20:30:39.834Z,3.97
2022-10-15T20:33:07.859Z,2.78
2022-10-15T20:35:35.711Z,1.40
2022-10-15T20:38:03.131Z,1.48
2022-10-15T20:40:30.078Z,3.30
2022-10-15T20:42:56.647Z,2.45
2022-10-15T20:45:33.266Z,4.18
2022-10-15T20:47:59.929Z,2.13
2022-10-15T20:50:30.644Z,3.33
2022-10-15T20:52:57.708Z,3.08
2022-10-15T20:55:24.760Z,2.95
2022-10-15T20:57:51.484Z,4.22
2022-10-15T21:00:18.333Z,2.88
2022-10-15T21:02:44.898Z,2.63
2022-10-15T21:05:12.408Z,3.03
2022-10-15T21:07:38.966Z,3.58
2022-10-15T21:10:05.880Z,4.55
2022-10-15T21:12:32.411Z,3.70
2022-10-15T21:14:58.926Z,5.82
2022-10-15T21:17:29.584Z,2.88
2022-10-15T21:19:56.115Z,5.85
2022-10-15T21:22:23.710Z,4.90
2022-10-15T21:24:50.213Z,6.57
2022-10-15T21:27:16.782Z,3.10
2022-10-15T21:29:44.969Z,2.53
2022-10-15T21:32:11.457Z,2.10
2022-10-15T21:34:38.029Z,3.45
2022-10-15T21:37:04.665Z,2.10
2022-10-15T21:39:37.268Z,3.78
2022-10-15T21:42:04.022Z,1.80
2022-10-15T21:44:31.688Z,2.20
2022-10-15T21:46:58.250Z,3.42
2022-10-15T21:49:24.749Z,1.77
2022-10-15T21:51:51.310Z,4.07
2022-10-15T21:54:17.813Z,2.38
2022-10-15T21:56:44.316Z,3.30
2022-10-15T21:59:10.812Z,2.65
2022-10-15T22:01:37.949Z,2.65
2022-10-15T22:04:09.681Z,2.88
2022-10-15T22:06:39.700Z,2.45
2022-10-15T22:09:07.542Z,2.70
2022-10-15T22:11:37.079Z,3.03
2022-10-15T22:14:05.815Z,2.78
2022-10-15T22:16:35.526Z,3.63
2022-10-15T22:19:02.986Z,6.45
2022-10-15T22:21:36.246Z,2.88
2022-10-15T22:24:08.473Z,4.55
2022-10-15T22:26:41.215Z,4.38
2022-10-15T22:29:10.814Z,3.10
2022-10-15T22:31:37.329Z,2.53
2022-10-15T22:34:03.935Z,3.30
2022-10-15T22:36:31.345Z,3.75
2022-10-15T22:39:04.838Z,2.45
2022-10-15T22:41:33.702Z,5.72
2022-10-15T22:44:00.221Z,3.55
2022-10-15T22:46:27.171Z,7.43
2022-10-15T22:48:54.305Z,1.58
2022-10-15T22:51:21.111Z,2.30
2022-10-15T22:53:47.815Z,1.73
2022-10-15T22:56:17.207Z,5.70
2022-10-15T22:58:44.746Z,5.35
2022-10-15T23:01:23.479Z,4.45
2022-10-15T23:03:52.691Z,1.52
2022-10-15T23:06:20.759Z,3.25
2022-10-15T23:08:48.068Z,4.82
2022-10-15T23:11:17.426Z,3.20
2022-10-15T23:13:45.180Z,4.68
2022-10-15T23:16:17.034Z,3.22
2022-10-15T23:18:45.239Z,3.17
2022-10-15T23:21:17.428Z,2.53
2022-10-15T23:23:45.161Z,1.85
2022-10-15T23:26:14.167Z,2.58
2022-10-15T23:28:41.780Z,2.55
2022-10-15T23:31:16.193Z,3.95
2022-10-15T23:33:42.760Z,6.57
2022-10-15T23:36:09.556Z,4.03
2022-10-15T23:38:36.037Z,5.10
2022-10-15T23:41:04.813Z,5.63
2022-10-15T23:43:31.468Z,4.60
2022-10-15T23:45:58.850Z,2.72
2022-10-15T23:48:28.331Z,6.57
2022-10-15T23:50:59.398Z,6.32
2022-10-15T23:53:29.267Z,2.83
2022-10-15T23:55:55.863Z,4.93
2022-10-15T23:58:22.346Z,3.33
